EGLCEGJB

Guest
Details From EGLC - London City
To EGJB - Guernsey
Flight Number -
Tags generated
Created
Modified
Stats Distance 161 nm / 297 km
Max Altitude 20,900 ft / 6,370 m
Waypoints 3
Social Downloads 3
Likes 0
Share VATSIM

Download

Looking for another format? Having issues loading an existing format? Contact us
Advertisement - Login to hide

Notes

Basic altitude profile: - Ascent Rate: 2500ft/min - Ascent Speed: 250kts - Cruise Altitude: 35000ft - Cruise Speed: 420kts - Descent Rate: 1500ft/min - Descent Speed: 250kts

Route

EGLC POMPI EGJB

ID Type Via Altitude Latitude Longitude Leg Dist Tot Dist Heading (true) Name
O EGLC APT - 0 ft / 0 m 51.50523˚ 0.05518˚ - 0 nm - London City
POMPI FIX - 20,900 ft / 6,370 m 50.76333˚ -0.95417˚ 58 nm 58 nm 221° / 220° -
O EGJB APT - 0 ft / 0 m 49.43495˚ -2.60197˚ 101 nm 160 nm 219° / 218° Guernsey

Altitude Profile

Advertisement - Login to hide

EGLC

Details ICAO EGLC (LCY)
Name London City
Region United Kingdom
Timezone Europe/London (UTC+0.0)
Stats Elevation 19 ft / 6 m (AMSL)
Location 51.505231° 0.055175°
Runways 1
Magnetic Variation 0.383° W

METAR

EGLC 172120Z AUTO 25012KT 9999 BKN007 BKN011 OVC045 10/09 Q1019

Decode

TAF

Not found

Departure Runways

ID Width Length Bearing (true) Bearing (mag) Surface Threshold Offset Overrun Length
09 98 ft / 30 m 4,931 ft / 1,503 m 92.89° 93.27° Concrete 322 ft / 98 m 164 ft / 50 m
27 98 ft / 30 m 4,931 ft / 1,503 m 272.91° 273.29° Concrete 243 ft / 74 m 279 ft / 85 m

EGJB

Details ICAO EGJB (GCI)
Name Guernsey
Region United Kingdom
Timezone Europe/Guernsey (UTC+0.0)
Stats Elevation 336 ft / 102 m (AMSL)
Location 49.434955° -2.601970°
Runways 1
Magnetic Variation 1.066° W

METAR

EGJB 172120Z 26019KT 8000 -DZ FEW003 BKN005 11/11 Q1025

Decode

TAF

Not found

Destination Runways

ID Width Length Bearing (true) Bearing (mag) Surface Threshold Offset Overrun Length
09 148 ft / 45 m 4,753 ft / 1,449 m 87.56° 88.63° Asphalt 0 ft / 0 m 0 ft / 0 m
27 148 ft / 45 m 4,753 ft / 1,449 m 267.57° 268.64° Asphalt 0 ft / 0 m 272 ft / 83 m

Approach Navaids

Runway Type Ident Frequency Range Bearing (true) Bearing (mag) Slope Elevation
09 Localiser IUY 108.10 MHz 18 nm / 33 km 87.59° 88.66° - 336 ft / 102 m (AMSL)
09 Glidescope IUY 108.10 MHz 10 nm / 19 km 87.57° 88.63° 3.00° 336 ft / 102 m (AMSL)
27 Localiser IGH 108.10 MHz 18 nm / 33 km 267.57° 268.63° - 336 ft / 102 m (AMSL)
27 Glidescope IGH 108.10 MHz 10 nm / 19 km 267.57° 268.63° 3.00° 336 ft / 102 m (AMSL)
27 DME IGH 108.10 MHz 18 nm / 33 km - - - 336 ft / 102 m (AMSL)

Popular Alternatives